»·PEaware :: N53262 KMHV-KSMX

N53262 :: KMHV-KSMX

FLIGHT INFORMATION

Flight Status: Arrived
Operator: Privately registered:
United States
More flights under this callsign
Pilot: Allen F. (27411)
Aircraft: BEECH AIRCRAFT BARON
(BE58)
More flights by this aircraft type
Origin: KMHV Mojave
United States
Destination: KSMX Santa Maria Pub/Capt Hancock
United States
More flights between these airports :: More routes between these airports
Route: JERID5 JERID LHS FIM V386 RZS
File this flight plan on PilotEdge
Remarks: thank you!
Altitude:
(Current/Filed)
12,000ft
Speed:
(Current/Filed)
175kts
Departed: 26-Aug-23 04:46 PM
Arrived: 26-Aug-23 05:36 PM
Distance/Time
Traveled:
113nm/0:50
Distance/Time
To Go:
Arrived

Flight Plot

Page will automatically refresh every two minutes.

Flight plan parsing failed; only flown route is shown


Map Options




Map Legend


Flown Route
Filed Route
Departure Airport
Arrival Airport
Navaid (VOR, NDB)
Fix

Horizontal Profiles

Position Reports

Time Latitude Longitude Heading Altitude Ground
Speed
26-Aug-23 16:24 35.056844 -118.157862 0 2759ft 0kts
26-Aug-23 16:25 35.056844 -118.157862 0 2759ft 0kts
26-Aug-23 16:26 35.056844 -118.157862 0 2759ft 0kts
26-Aug-23 16:27 35.056844 -118.157862 0 2759ft 0kts
26-Aug-23 16:28 35.056844 -118.157862 0 2759ft 0kts
26-Aug-23 16:29 35.056845 -118.157862 0 2759ft 0kts
26-Aug-23 16:30 35.056845 -118.157862 0 2759ft 0kts
26-Aug-23 16:31 35.056845 -118.157862 0 2759ft 0kts
26-Aug-23 16:32 35.056845 -118.157862 0 2759ft 0kts
26-Aug-23 16:33 35.056845 -118.157862 0 2759ft 0kts
26-Aug-23 16:34 35.056845 -118.157862 0 2759ft 0kts
26-Aug-23 16:35 35.056845 -118.157862 0 2759ft 0kts
26-Aug-23 16:36 35.056845 -118.157862 0 2759ft 0kts
26-Aug-23 16:37 35.056845 -118.157862 0 2759ft 0kts
26-Aug-23 16:38 35.056845 -118.157862 0 2759ft 0kts
26-Aug-23 16:39 35.057589 -118.156374 86 2758ft 19kts
26-Aug-23 16:40 35.057548 -118.147087 85 2740ft 27kts
26-Aug-23 16:41 35.057988 -118.142590 19 2732ft 0kts
26-Aug-23 16:42 35.057988 -118.142590 19 2732ft 0kts
26-Aug-23 16:43 35.057989 -118.142590 18 2732ft 0kts
26-Aug-23 16:44 35.058336 -118.142629 357 2732ft 0kts
26-Aug-23 16:45 35.059154 -118.151372 264 2797ft 95kts
26-Aug-23 16:46 35.056478 -118.188391 232 4156ft 98kts
26-Aug-23 16:47 35.034644 -118.212023 220 5434ft 100kts
26-Aug-23 16:48 35.012701 -118.232967 226 6541ft 106kts
26-Aug-23 16:49 34.991801 -118.256845 226 7689ft 102kts
26-Aug-23 16:50 34.969715 -118.280897 221 8661ft 107kts
26-Aug-23 16:51 34.947691 -118.302661 222 9663ft 104kts
26-Aug-23 16:52 34.925460 -118.325297 212 10602ft 106kts
26-Aug-23 16:53 34.904399 -118.349704 204 11489ft 104kts
26-Aug-23 16:54 34.880961 -118.371769 217 12227ft 113kts
26-Aug-23 16:55 34.856002 -118.398736 222 12655ft 136kts
26-Aug-23 16:56 34.822080 -118.430815 217 12581ft 163kts
26-Aug-23 16:57 34.789149 -118.468121 222 12657ft 167kts
26-Aug-23 16:58 34.753482 -118.504717 220 12720ft 165kts
26-Aug-23 16:59 34.718498 -118.542194 217 12698ft 171kts
26-Aug-23 17:00 34.682996 -118.581999 244 12550ft 174kts
26-Aug-23 17:01 34.675069 -118.638371 252 12687ft 172kts
26-Aug-23 17:02 34.665735 -118.695414 263 12711ft 176kts
26-Aug-23 17:03 34.661151 -118.755112 261 12644ft 179kts
26-Aug-23 17:04 34.648986 -118.810311 257 12650ft 168kts
26-Aug-23 17:05 34.642146 -118.867248 256 12698ft 174kts
26-Aug-23 17:06 34.633178 -118.926084 256 12655ft 179kts
26-Aug-23 17:07 34.624586 -118.985801 257 12637ft 179kts
26-Aug-23 17:08 34.616001 -119.045649 257 12597ft 179kts
26-Aug-23 17:09 34.606869 -119.108968 256 11611ft 205kts
26-Aug-23 17:10 34.599623 -119.174834 255 11291ft 191kts
26-Aug-23 17:11 34.589620 -119.240831 258 10331ft 207kts
26-Aug-23 17:12 34.580216 -119.306259 258 9525ft 195kts
26-Aug-23 17:13 34.572541 -119.368453 257 9374ft 188kts
26-Aug-23 17:14 34.563333 -119.428893 250 9540ft 181kts
26-Aug-23 17:15 34.549817 -119.487317 262 9405ft 190kts
26-Aug-23 17:16 34.542475 -119.549676 261 8544ft 188kts
26-Aug-23 17:17 34.532171 -119.613838 273 7244ft 186kts
26-Aug-23 17:18 34.525999 -119.676109 257 6992ft 178kts
26-Aug-23 17:19 34.514538 -119.737201 261 6410ft 191kts
26-Aug-23 17:20 34.521448 -119.798241 301 6322ft 186kts
26-Aug-23 17:21 34.546458 -119.852489 296 6339ft 182kts
26-Aug-23 17:22 34.570477 -119.906259 312 6375ft 181kts
26-Aug-23 17:23 34.598512 -119.958042 298 6276ft 187kts
26-Aug-23 17:24 34.624344 -120.011215 313 6395ft 177kts
26-Aug-23 17:25 34.653493 -120.063826 300 5692ft 192kts
26-Aug-23 17:26 34.682731 -120.119390 306 4995ft 186kts
26-Aug-23 17:27 34.701779 -120.174892 300 4895ft 177kts
26-Aug-23 17:28 34.721326 -120.231287 291 4809ft 188kts
26-Aug-23 17:30 34.750961 -120.279155 322 4742ft 177kts
26-Aug-23 17:31 34.782214 -120.316897 319 3888ft 138kts
26-Aug-23 17:32 34.810476 -120.347843 322 2746ft 136kts
26-Aug-23 17:33 34.838151 -120.380309 321 2074ft 137kts
26-Aug-23 17:34 34.865234 -120.413039 321 1314ft 136kts
26-Aug-23 17:35 34.890416 -120.442894 320 365ft 101kts
26-Aug-23 17:36 34.898821 -120.451410 91 240ft 0kts
26-Aug-23 17:37 34.898816 -120.451219 91 240ft 7kts
26-Aug-23 17:38 34.897295 -120.448750 133 248ft 18kts
26-Aug-23 17:39 34.896251 -120.445769 55 255ft 4kts
26-Aug-23 17:40 34.896465 -120.445809 318 255ft 0kts

Navigation Log

Ident Type
Flight plan parsing failed, navigation log unavailable